createdAt,value
2022-12-31T00:01:50.178Z,9.93
2022-12-31T00:04:20.698Z,9.93
2022-12-31T00:06:51.595Z,9.94
2022-12-31T00:09:21.960Z,9.96
2022-12-31T00:11:52.364Z,9.97
2022-12-31T00:14:22.838Z,9.99
2022-12-31T00:16:53.189Z,10.00
2022-12-31T00:19:23.610Z,10.01
2022-12-31T00:21:53.943Z,10.01
2022-12-31T00:24:24.590Z,10.02
2022-12-31T00:26:54.946Z,10.04
2022-12-31T00:29:25.912Z,10.06
2022-12-31T00:31:56.271Z,10.08
2022-12-31T00:34:26.934Z,10.10
2022-12-31T00:36:57.294Z,10.12
2022-12-31T00:39:27.785Z,10.13
2022-12-31T00:41:58.663Z,10.14
2022-12-31T00:44:29.062Z,10.16
2022-12-31T00:46:59.515Z,10.17
2022-12-31T00:49:29.843Z,10.18
2022-12-31T00:52:00.204Z,10.18
2022-12-31T00:54:30.535Z,10.20
2022-12-31T00:57:01.015Z,10.21
2022-12-31T00:59:31.426Z,10.23
2022-12-31T01:02:02.217Z,10.23
2022-12-31T01:04:33.059Z,10.23
2022-12-31T01:07:03.840Z,10.25
2022-12-31T01:09:34.513Z,10.26
2022-12-31T01:12:05.342Z,10.28
2022-12-31T01:14:35.675Z,10.29
2022-12-31T01:17:06.007Z,10.29
2022-12-31T01:19:36.322Z,10.31
2022-12-31T01:22:06.648Z,10.31
2022-12-31T01:24:37.048Z,10.34
2022-12-31T01:27:07.507Z,10.38
2022-12-31T01:29:38.107Z,10.41
2022-12-31T01:32:08.693Z,10.43
2022-12-31T01:34:39.000Z,10.43
2022-12-31T01:37:09.923Z,10.43
2022-12-31T01:39:40.285Z,10.44
2022-12-31T01:42:13.121Z,10.44
2022-12-31T01:44:56.041Z,10.45
2022-12-31T01:47:37.618Z,10.46
2022-12-31T01:50:12.810Z,10.45
2022-12-31T01:52:45.649Z,10.43
2022-12-31T01:55:16.175Z,10.44
2022-12-31T01:57:47.441Z,10.44
2022-12-31T02:00:18.231Z,10.46
2022-12-31T02:02:48.904Z,10.48
2022-12-31T02:05:23.795Z,10.49
2022-12-31T02:07:54.541Z,10.53
2022-12-31T02:10:24.834Z,10.55
2022-12-31T02:12:55.342Z,10.56
2022-12-31T02:15:36.493Z,10.60
2022-12-31T02:18:12.974Z,10.61
2022-12-31T02:21:14.250Z,10.62
2022-12-31T02:24:06.329Z,10.63
2022-12-31T02:26:49.598Z,10.62
2022-12-31T02:30:00.077Z,10.62
2022-12-31T02:32:40.104Z,10.62
2022-12-31T02:35:13.576Z,10.64
2022-12-31T02:37:45.931Z,10.64
2022-12-31T02:40:18.957Z,10.65
2022-12-31T02:42:55.099Z,10.65
2022-12-31T02:45:30.428Z,10.65
2022-12-31T02:48:13.977Z,10.66
2022-12-31T02:50:55.385Z,10.68
2022-12-31T02:53:40.453Z,10.70
2022-12-31T02:56:14.220Z,10.74
2022-12-31T02:59:07.938Z,10.77
2022-12-31T03:01:58.559Z,10.77
2022-12-31T03:04:36.330Z,10.81
2022-12-31T03:07:08.408Z,10.82
2022-12-31T03:09:39.381Z,10.85
2022-12-31T03:12:29.776Z,10.87
2022-12-31T03:15:00.341Z,10.86
2022-12-31T03:17:30.697Z,10.89
2022-12-31T03:20:22.045Z,10.91
2022-12-31T03:22:52.463Z,10.93
2022-12-31T03:25:35.573Z,10.93
2022-12-31T03:28:05.488Z,10.94
2022-12-31T03:30:37.258Z,10.93
2022-12-31T03:33:08.511Z,10.91
2022-12-31T03:35:40.900Z,10.91
2022-12-31T03:38:11.224Z,10.92
2022-12-31T03:40:42.778Z,10.94
2022-12-31T03:43:13.144Z,10.94
2022-12-31T03:45:43.601Z,10.97
2022-12-31T03:48:13.957Z,10.98
2022-12-31T03:50:44.244Z,10.98
2022-12-31T03:53:14.629Z,10.98
2022-12-31T03:55:44.932Z,10.95
2022-12-31T03:58:15.235Z,10.95
2022-12-31T04:00:45.788Z,10.92
2022-12-31T04:03:16.394Z,10.89
2022-12-31T04:05:46.941Z,10.87
2022-12-31T04:08:17.321Z,10.86
2022-12-31T04:10:48.120Z,10.85
2022-12-31T04:13:18.562Z,10.83
2022-12-31T04:15:52.325Z,10.82
2022-12-31T04:18:23.026Z,10.80
2022-12-31T04:20:53.364Z,10.80
2022-12-31T04:23:23.652Z,10.82
2022-12-31T04:25:54.301Z,10.84
2022-12-31T04:28:24.834Z,10.87
2022-12-31T04:30:55.169Z,10.89
2022-12-31T04:33:25.558Z,10.90
2022-12-31T04:36:00.877Z,10.90
2022-12-31T04:38:31.248Z,10.90
2022-12-31T04:41:20.643Z,10.90
2022-12-31T04:43:52.370Z,10.90
2022-12-31T04:46:24.500Z,10.93
2022-12-31T04:48:55.094Z,10.96
2022-12-31T04:51:25.932Z,10.97
2022-12-31T04:53:56.354Z,11.02
2022-12-31T04:56:27.387Z,11.04
2022-12-31T04:58:57.936Z,11.08
2022-12-31T05:01:28.324Z,11.10
2022-12-31T05:03:58.694Z,11.12
2022-12-31T05:06:28.977Z,11.14
2022-12-31T05:08:59.559Z,11.17
2022-12-31T05:11:31.029Z,11.18
2022-12-31T05:14:01.337Z,11.22
2022-12-31T05:16:31.719Z,11.26
2022-12-31T05:19:02.033Z,11.29
2022-12-31T05:21:32.340Z,11.30
2022-12-31T05:24:02.662Z,11.29
2022-12-31T05:26:32.979Z,11.29
2022-12-31T05:29:03.339Z,11.25
2022-12-31T05:31:33.656Z,11.26
2022-12-31T05:34:04.474Z,11.26
2022-12-31T05:36:34.762Z,11.26
2022-12-31T05:39:05.184Z,11.25
2022-12-31T05:41:35.476Z,11.24
2022-12-31T05:44:06.123Z,11.23
2022-12-31T05:46:36.572Z,11.24
2022-12-31T05:49:06.863Z,11.25
2022-12-31T05:51:37.563Z,11.27
2022-12-31T05:54:08.072Z,11.28
2022-12-31T05:56:40.185Z,11.30
2022-12-31T05:59:10.490Z,11.32
2022-12-31T06:01:40.790Z,11.31
2022-12-31T06:04:11.289Z,11.32
2022-12-31T06:06:41.659Z,11.36
2022-12-31T06:09:12.053Z,11.40
2022-12-31T06:11:42.387Z,11.45
2022-12-31T06:14:13.081Z,11.49
2022-12-31T06:16:43.506Z,11.55
2022-12-31T06:19:13.865Z,11.58
2022-12-31T06:21:44.199Z,11.61
2022-12-31T06:24:14.570Z,11.65
2022-12-31T06:26:44.948Z,11.67
2022-12-31T06:29:15.306Z,11.72
2022-12-31T06:31:45.624Z,11.74
2022-12-31T06:34:15.993Z,11.77
2022-12-31T06:36:46.388Z,11.79
2022-12-31T06:39:17.013Z,11.80
2022-12-31T06:41:47.444Z,11.82
2022-12-31T06:44:17.804Z,11.83
2022-12-31T06:46:48.190Z,11.83
2022-12-31T06:49:20.028Z,11.83
2022-12-31T06:51:50.325Z,11.83
2022-12-31T06:54:20.937Z,11.88
2022-12-31T06:56:52.185Z,11.89
2022-12-31T06:59:28.732Z,11.89
2022-12-31T07:02:27.730Z,11.91
2022-12-31T07:05:25.251Z,11.92
2022-12-31T07:08:03.390Z,11.96
2022-12-31T07:10:40.083Z,12.00
2022-12-31T07:13:28.185Z,12.03
2022-12-31T07:16:06.838Z,12.02
2022-12-31T07:18:42.544Z,12.05
2022-12-31T07:21:16.493Z,12.07
2022-12-31T07:23:47.741Z,12.11
2022-12-31T07:26:23.467Z,12.13
2022-12-31T07:29:01.468Z,12.16
2022-12-31T07:31:39.514Z,12.20
2022-12-31T07:34:15.613Z,12.25
2022-12-31T07:37:02.466Z,12.26
2022-12-31T07:39:38.827Z,12.30
2022-12-31T07:42:15.332Z,12.34
2022-12-31T07:44:54.702Z,12.37
2022-12-31T07:47:28.135Z,12.38
2022-12-31T07:49:59.818Z,12.40
2022-12-31T07:52:31.032Z,12.47
2022-12-31T07:55:01.335Z,12.50
2022-12-31T07:57:36.772Z,12.48
2022-12-31T08:00:13.501Z,12.53
2022-12-31T08:03:03.598Z,12.53
2022-12-31T08:05:37.915Z,12.52
2022-12-31T08:08:24.371Z,12.50
2022-12-31T08:11:04.517Z,12.52
2022-12-31T08:13:35.605Z,12.51
2022-12-31T08:16:09.413Z,12.50
2022-12-31T08:18:40.647Z,12.47
2022-12-31T08:21:18.888Z,12.47
2022-12-31T08:23:58.244Z,12.47
2022-12-31T08:26:36.237Z,12.47
2022-12-31T08:29:13.538Z,12.45
2022-12-31T08:31:51.488Z,12.46
2022-12-31T08:34:26.353Z,12.49
2022-12-31T08:37:04.098Z,12.50
2022-12-31T08:39:45.116Z,12.50
2022-12-31T08:42:26.822Z,12.50
2022-12-31T08:45:04.793Z,12.53
2022-12-31T08:47:42.113Z,12.53
2022-12-31T08:50:19.286Z,12.53
2022-12-31T08:52:50.970Z,12.54
2022-12-31T08:55:23.129Z,12.55
2022-12-31T08:58:02.546Z,12.58
2022-12-31T09:00:33.190Z,12.58
2022-12-31T09:03:20.995Z,12.57
2022-12-31T09:06:00.511Z,12.57
2022-12-31T09:08:38.144Z,12.59
2022-12-31T09:11:19.190Z,12.59
2022-12-31T09:14:04.507Z,12.62
2022-12-31T09:16:43.743Z,12.66
2022-12-31T09:19:14.420Z,12.73
2022-12-31T09:21:46.094Z,12.78
2022-12-31T09:24:18.298Z,12.83
2022-12-31T09:26:55.540Z,12.87
2022-12-31T09:29:42.350Z,12.94
2022-12-31T09:32:22.354Z,13.02
2022-12-31T09:34:57.775Z,13.07
2022-12-31T09:37:40.283Z,13.10
2022-12-31T09:40:38.817Z,13.14
2022-12-31T09:43:46.487Z,13.19
2022-12-31T09:46:32.026Z,13.27
2022-12-31T09:49:26.703Z,13.39
2022-12-31T09:52:05.912Z,13.56
2022-12-31T09:54:53.956Z,13.81
2022-12-31T09:57:40.698Z,14.05
2022-12-31T10:00:16.719Z,14.45
2022-12-31T10:03:05.484Z,14.88
2022-12-31T10:05:53.766Z,15.26
2022-12-31T10:08:39.861Z,15.52
2022-12-31T10:11:17.550Z,15.71
2022-12-31T10:13:55.074Z,15.82
2022-12-31T10:16:37.653Z,15.90
2022-12-31T10:19:35.546Z,15.97
2022-12-31T10:22:15.378Z,16.10
2022-12-31T10:25:03.111Z,16.13
2022-12-31T10:27:44.931Z,16.01
2022-12-31T10:30:19.555Z,15.93
2022-12-31T10:33:00.404Z,15.84
2022-12-31T10:35:44.193Z,15.82
2022-12-31T10:38:25.469Z,15.95
2022-12-31T10:41:25.294Z,16.39
2022-12-31T10:44:31.542Z,16.92
2022-12-31T10:47:22.357Z,17.43
2022-12-31T10:50:20.034Z,17.48
2022-12-31T10:53:05.684Z,17.34
2022-12-31T10:56:07.326Z,17.13
2022-12-31T10:59:01.213Z,16.90
2022-12-31T11:01:40.105Z,16.61
2022-12-31T11:04:34.889Z,16.30
2022-12-31T11:07:32.123Z,15.95
2022-12-31T11:10:17.502Z,15.66
2022-12-31T11:13:23.128Z,15.42
2022-12-31T11:16:10.406Z,15.11
2022-12-31T11:18:48.969Z,14.89
2022-12-31T11:21:29.122Z,14.72
2022-12-31T11:24:06.330Z,14.62
2022-12-31T11:26:48.372Z,14.56
2022-12-31T11:29:29.100Z,14.52
2022-12-31T11:32:08.362Z,14.52
2022-12-31T11:34:59.124Z,14.53
2022-12-31T11:37:36.685Z,14.62
2022-12-31T11:40:22.613Z,14.72
2022-12-31T11:42:58.736Z,14.72
2022-12-31T11:45:50.808Z,14.74
2022-12-31T11:48:30.652Z,14.69
2022-12-31T11:51:11.431Z,14.72
2022-12-31T11:53:57.384Z,14.72
2022-12-31T11:56:31.058Z,14.68
2022-12-31T11:59:07.772Z,14.75
2022-12-31T12:01:49.017Z,14.93
2022-12-31T12:04:19.511Z,15.07
2022-12-31T12:06:51.763Z,15.13
2022-12-31T12:09:27.242Z,15.31
2022-12-31T12:12:03.184Z,15.78
2022-12-31T12:14:36.398Z,16.24
2022-12-31T12:17:09.800Z,16.63
2022-12-31T12:19:46.444Z,16.88
2022-12-31T12:22:22.685Z,17.04
2022-12-31T12:24:57.627Z,17.24
2022-12-31T12:27:33.389Z,17.40
2022-12-31T12:30:15.419Z,17.36
2022-12-31T12:32:54.018Z,17.21
2022-12-31T12:35:29.103Z,17.15
2022-12-31T12:38:04.993Z,17.16
2022-12-31T12:40:36.146Z,17.29
2022-12-31T12:43:06.860Z,17.51
2022-12-31T12:45:46.399Z,17.74
2022-12-31T12:48:26.590Z,17.87
2022-12-31T12:50:57.365Z,17.89
2022-12-31T12:53:35.746Z,18.18
2022-12-31T12:56:13.265Z,18.23
2022-12-31T12:58:55.500Z,17.96
2022-12-31T13:01:34.845Z,17.75
2022-12-31T13:04:36.177Z,17.70
2022-12-31T13:07:16.001Z,17.60
2022-12-31T13:09:59.501Z,17.50
2022-12-31T13:12:42.784Z,17.37
2022-12-31T13:15:22.642Z,17.03
2022-12-31T13:18:04.129Z,16.80
2022-12-31T13:20:37.808Z,16.88
2022-12-31T13:23:16.100Z,17.11
2022-12-31T13:25:57.811Z,17.23
2022-12-31T13:28:29.386Z,17.19
2022-12-31T13:31:06.820Z,16.96
2022-12-31T13:33:40.958Z,16.66
2022-12-31T13:36:15.330Z,16.53
2022-12-31T13:38:49.793Z,16.45
2022-12-31T13:41:24.035Z,16.16
2022-12-31T13:43:59.664Z,15.86
2022-12-31T13:46:38.772Z,15.57
2022-12-31T13:49:18.204Z,15.33
2022-12-31T13:51:50.518Z,15.13
2022-12-31T13:54:29.918Z,14.95
2022-12-31T13:57:04.452Z,14.77
2022-12-31T13:59:37.909Z,14.59
2022-12-31T14:02:14.292Z,14.50
2022-12-31T14:04:49.784Z,14.37
2022-12-31T14:07:23.298Z,14.28
2022-12-31T14:09:53.658Z,14.24
2022-12-31T14:12:33.343Z,14.19
2022-12-31T14:15:12.042Z,14.14
2022-12-31T14:17:46.456Z,14.08
2022-12-31T14:20:22.678Z,13.99
2022-12-31T14:22:57.313Z,13.90
2022-12-31T14:25:30.462Z,13.82
2022-12-31T14:28:04.237Z,13.77
2022-12-31T14:30:37.405Z,13.73
2022-12-31T14:33:29.536Z,13.68
2022-12-31T14:36:10.915Z,13.63
2022-12-31T14:38:55.846Z,13.60
2022-12-31T14:41:35.091Z,13.56
2022-12-31T14:44:14.564Z,13.50
2022-12-31T14:46:56.162Z,13.48
2022-12-31T14:49:42.495Z,13.45
2022-12-31T14:52:22.537Z,13.41
2022-12-31T14:55:03.131Z,13.38
2022-12-31T14:58:17.260Z,13.35
2022-12-31T15:00:35.169Z,13.33
2022-12-31T15:03:07.809Z,13.29
2022-12-31T15:05:39.298Z,13.28
2022-12-31T15:08:26.300Z,13.25
2022-12-31T15:11:29.987Z,13.20
2022-12-31T15:14:18.562Z,13.15
2022-12-31T15:16:53.786Z,13.13
2022-12-31T15:19:52.865Z,13.09
2022-12-31T15:22:33.515Z,13.08
2022-12-31T15:25:04.531Z,13.04
2022-12-31T15:27:37.018Z,12.98
2022-12-31T15:30:27.121Z,12.91
2022-12-31T15:32:58.549Z,12.83
2022-12-31T15:35:32.478Z,12.80
2022-12-31T15:38:04.974Z,12.76
2022-12-31T15:40:45.745Z,12.72
2022-12-31T15:43:19.566Z,12.72
2022-12-31T15:45:52.155Z,12.73
2022-12-31T15:48:25.823Z,12.70
2022-12-31T15:50:58.691Z,12.64
2022-12-31T15:53:29.719Z,12.60
2022-12-31T15:56:01.766Z,12.49
2022-12-31T15:58:35.747Z,12.57
2022-12-31T16:01:13.912Z,12.56
2022-12-31T16:03:48.224Z,12.57
2022-12-31T16:06:19.185Z,12.56
2022-12-31T16:08:51.650Z,12.56
2022-12-31T16:11:22.120Z,12.58
2022-12-31T16:13:55.254Z,12.56
2022-12-31T16:16:27.319Z,12.51
2022-12-31T16:18:58.366Z,12.55
2022-12-31T16:21:32.519Z,12.57
2022-12-31T16:24:06.771Z,12.56
2022-12-31T16:26:44.772Z,12.53
2022-12-31T16:29:16.671Z,12.50
2022-12-31T16:31:47.953Z,12.49
2022-12-31T16:34:21.934Z,12.49
2022-12-31T16:37:00.600Z,12.52
2022-12-31T16:39:33.858Z,12.52
2022-12-31T16:42:20.486Z,12.48
2022-12-31T16:44:52.818Z,12.47
2022-12-31T16:47:25.724Z,12.45
2022-12-31T16:50:03.968Z,12.44
2022-12-31T16:52:36.944Z,12.48
2022-12-31T16:55:09.540Z,12.49
2022-12-31T16:57:40.619Z,12.46
2022-12-31T17:00:20.839Z,12.42
2022-12-31T17:08:49.108Z,12.26
2022-12-31T17:11:28.706Z,12.20
2022-12-31T17:14:02.023Z,12.17
2022-12-31T17:16:32.414Z,12.15
2022-12-31T17:19:56.788Z,12.13
2022-12-31T17:22:35.711Z,12.13
2022-12-31T17:25:09.652Z,12.15
2022-12-31T17:27:40.021Z,12.17
2022-12-31T17:30:40.133Z,12.17
2022-12-31T17:33:33.923Z,12.15
2022-12-31T17:43:43.527Z,12.11
2022-12-31T17:46:16.219Z,12.11
2022-12-31T17:48:49.229Z,12.13
2022-12-31T17:51:24.371Z,12.13
2022-12-31T17:53:55.136Z,12.09
2022-12-31T17:56:25.715Z,12.09
2022-12-31T17:58:56.335Z,12.09
2022-12-31T18:01:26.854Z,12.12
2022-12-31T18:03:57.574Z,12.16
2022-12-31T18:06:28.190Z,12.19
2022-12-31T18:08:58.768Z,12.18
2022-12-31T18:11:29.156Z,12.16
2022-12-31T18:13:59.639Z,12.16
2022-12-31T18:16:30.050Z,12.15
2022-12-31T18:19:01.923Z,12.13
2022-12-31T18:21:34.607Z,12.13
2022-12-31T18:24:07.086Z,12.14
2022-12-31T18:26:37.493Z,12.16
2022-12-31T18:29:16.845Z,12.17
2022-12-31T18:31:49.337Z,12.17
2022-12-31T18:34:20.071Z,12.14
2022-12-31T18:36:50.442Z,12.12
2022-12-31T18:39:20.793Z,12.11
2022-12-31T18:41:51.365Z,12.10
2022-12-31T18:44:21.923Z,12.05
2022-12-31T18:46:52.196Z,12.03
2022-12-31T18:49:26.031Z,11.98
2022-12-31T18:51:57.063Z,11.94
2022-12-31T18:54:27.431Z,11.93
2022-12-31T18:56:57.833Z,11.93
2022-12-31T18:59:28.187Z,11.93
2022-12-31T19:01:59.732Z,11.92
2022-12-31T19:04:30.255Z,11.90
2022-12-31T19:07:00.896Z,11.87
2022-12-31T19:09:45.188Z,11.87
2022-12-31T19:12:17.236Z,11.87
2022-12-31T19:14:47.703Z,11.83
2022-12-31T19:17:18.026Z,11.79
2022-12-31T19:19:48.381Z,11.79
2022-12-31T19:22:18.855Z,11.80
2022-12-31T19:24:49.320Z,11.80
2022-12-31T19:27:19.650Z,11.79
2022-12-31T19:29:50.024Z,11.76
2022-12-31T19:32:20.364Z,11.74
2022-12-31T19:34:50.739Z,11.70
2022-12-31T19:37:21.141Z,11.70
2022-12-31T19:39:51.494Z,11.69
2022-12-31T19:42:21.886Z,11.68
2022-12-31T19:44:52.275Z,11.67
2022-12-31T19:47:22.556Z,11.65
2022-12-31T19:49:52.980Z,11.66
2022-12-31T19:52:23.426Z,11.65
2022-12-31T19:54:53.986Z,11.62
2022-12-31T19:57:24.464Z,11.57
2022-12-31T19:59:54.838Z,11.55
2022-12-31T20:02:25.325Z,11.51
2022-12-31T20:04:55.998Z,11.47
2022-12-31T20:07:27.392Z,11.41
2022-12-31T20:09:57.943Z,11.39
2022-12-31T20:12:29.582Z,11.35
2022-12-31T20:15:00.070Z,11.28
2022-12-31T20:17:30.665Z,11.24
2022-12-31T20:20:01.764Z,11.23
2022-12-31T20:22:32.919Z,11.25
2022-12-31T20:25:03.372Z,11.30
2022-12-31T20:27:33.899Z,11.35
2022-12-31T20:30:04.918Z,11.37
2022-12-31T20:32:35.329Z,11.39
2022-12-31T20:35:06.821Z,11.42
2022-12-31T20:37:37.329Z,11.44
2022-12-31T20:40:09.702Z,11.43
2022-12-31T20:42:40.692Z,11.46
2022-12-31T20:45:12.558Z,11.52
2022-12-31T20:47:42.979Z,11.55
2022-12-31T20:50:13.426Z,11.59
2022-12-31T20:52:44.134Z,11.61
2022-12-31T20:55:15.132Z,11.63
2022-12-31T20:57:45.573Z,11.66
2022-12-31T21:00:17.070Z,11.71
2022-12-31T21:02:56.347Z,11.78
2022-12-31T21:05:30.940Z,11.81
2022-12-31T21:08:01.459Z,11.83
2022-12-31T21:10:31.861Z,11.86
2022-12-31T21:13:02.333Z,11.88
2022-12-31T21:15:32.816Z,11.86
2022-12-31T21:18:03.418Z,11.85
2022-12-31T21:20:33.951Z,11.86
2022-12-31T21:23:04.308Z,11.90
2022-12-31T21:25:35.385Z,11.92
2022-12-31T21:28:05.950Z,11.92
2022-12-31T21:30:36.520Z,11.93
2022-12-31T21:33:07.559Z,11.94
2022-12-31T21:35:45.778Z,11.97
2022-12-31T21:38:22.442Z,12.00
2022-12-31T21:40:52.944Z,12.01
2022-12-31T21:43:23.364Z,12.04
2022-12-31T21:46:03.586Z,12.02
2022-12-31T21:48:34.299Z,12.01
2022-12-31T21:51:12.790Z,12.03
2022-12-31T21:53:43.175Z,12.00
2022-12-31T21:56:14.660Z,11.97
2022-12-31T21:58:46.328Z,11.93
2022-12-31T22:01:37.693Z,11.91
2022-12-31T22:04:28.289Z,11.86
2022-12-31T22:06:59.152Z,11.81
2022-12-31T22:09:29.460Z,11.74
2022-12-31T22:11:59.994Z,11.65
2022-12-31T22:14:30.291Z,11.60
2022-12-31T22:17:00.737Z,11.55
2022-12-31T22:19:31.160Z,11.51
2022-12-31T22:22:02.251Z,11.46
2022-12-31T22:24:32.626Z,11.40
2022-12-31T22:27:28.097Z,11.35
2022-12-31T22:29:53.422Z,11.31
2022-12-31T22:32:23.838Z,11.30
2022-12-31T22:34:54.184Z,11.28
2022-12-31T22:37:55.822Z,11.25
2022-12-31T22:40:14.973Z,11.16
2022-12-31T22:42:45.360Z,11.07
2022-12-31T22:45:16.033Z,11.00
2022-12-31T22:47:46.487Z,10.93
2022-12-31T22:50:17.206Z,10.92
2022-12-31T22:52:47.542Z,10.89
2022-12-31T22:55:17.922Z,10.83
2022-12-31T22:57:48.219Z,10.77
2022-12-31T23:00:20.234Z,10.70
2022-12-31T23:02:50.577Z,10.65
2022-12-31T23:05:20.999Z,10.58
2022-12-31T23:07:51.370Z,10.54
2022-12-31T23:10:39.319Z,10.55
2022-12-31T23:13:27.316Z,10.56
2022-12-31T23:16:15.331Z,10.51
2022-12-31T23:19:05.540Z,10.43
2022-12-31T23:21:53.717Z,10.32
2022-12-31T23:24:26.647Z,10.27
2022-12-31T23:26:57.819Z,10.30
2022-12-31T23:29:28.675Z,10.31
2022-12-31T23:31:59.208Z,10.29
2022-12-31T23:34:29.631Z,10.25
2022-12-31T23:36:59.920Z,10.21
2022-12-31T23:39:30.426Z,10.17
2022-12-31T23:42:01.998Z,10.17
2022-12-31T23:44:32.358Z,10.18
2022-12-31T23:47:02.836Z,10.20
2022-12-31T23:49:33.199Z,10.20
2022-12-31T23:52:03.422Z,10.18
2022-12-31T23:54:34.980Z,10.17
2022-12-31T23:57:05.456Z,10.15
2022-12-31T23:59:35.705Z,10.14
